Industry, New York
Current Conditions -  °F | °C
As of 6:54 PM on Wednesday 22 Oct 2014 (Local Time) from KROC Reporting Station
Overcast Overcast  
Wind Chill: 51°   Ceiling: 2600
Heat Index: 51°   Visibility: 10mi
Dew Point: 42°   Wind: 12mph
Humidity: 71%   Direction: 20°NNE
Pressure: 30.19"   Gusts: 22mph
Location:  42.9942°N, 77.6714°W
Report Text: KROC 222254Z 02010G19KT 10SM BKN026 OVC030 11/06 A3019 RMK AO2 SLP227 T01060056
Loading
Personal Weather Stations






























Interactive Weather Map
Tropical Storm Tracking
New forecast layout! Learn more

10-Day Weather Forecast

Advertisements
Track Severe Weather on mobile